Time;durP1;ratioP1;P1;durP2;ratioP2;P2;SDS_P1;SDS_P2;PMS_P1;PMS_P2;Temp;Humidity;BMP_temperature;BMP_pressure;BME280_temperature;BME280_humidity;BME280_pressure;Samples;Min_cycle;Max_cycle;Signal;HPM_P1;HPM_P2
2021/11/13 00:01:57;;;;;;;;;26.25;20.25;;;;;12.78;74.21;101201.97;5044023;28;45415;-62
2021/11/13 00:04:23;;;;;;;;;31.00;23.50;;;;;12.79;74.05;101193.09;5043952;28;45692;-62
2021/11/13 00:06:48;;;;;;;;;31.75;26.25;;;;;12.79;74.04;101190.47;5044068;28;45244;-62
2021/11/13 00:09:14;;;;;;;;;28.50;23.25;;;;;12.80;73.96;101198.31;5044013;28;45241;-62
2021/11/13 00:11:41;;;;;;;;;25.50;21.25;;;;;12.83;73.74;101194.63;5044177;28;45577;-62
2021/11/13 00:14:12;;;;;;;;;36.00;25.25;;;;;12.86;74.00;101194.44;5043768;28;46283;-62
2021/11/13 00:16:38;;;;;;;;;27.25;23.75;;;;;12.84;73.85;101191.88;5043889;28;45443;-63
2021/11/13 00:19:04;;;;;;;;;25.50;18.75;;;;;12.83;73.89;101192.00;5043478;28;45223;-62
2021/11/13 00:21:29;;;;;;;;;25.50;22.75;;;;;12.83;73.94;101195.47;5043902;28;45427;-62
2021/11/13 00:23:55;;;;;;;;;33.00;23.00;;;;;12.85;73.97;101188.28;5043552;28;45909;-62
2021/11/13 00:26:22;;;;;;;;;24.25;22.00;;;;;12.88;73.81;101189.06;5043971;28;45228;-62
2021/11/13 00:28:47;;;;;;;;;28.25;24.50;;;;;12.90;73.77;101193.31;5043760;28;45470;-63
2021/11/13 00:31:13;;;;;;;;;24.25;19.25;;;;;12.91;73.53;101176.50;5043715;28;45337;-63
2021/11/13 00:33:38;;;;;;;;;24.50;19.25;;;;;12.93;73.61;101182.53;5043351;28;45397;-62
2021/11/13 00:36:04;;;;;;;;;24.75;20.50;;;;;12.94;73.48;101181.59;5043827;28;45374;-62
2021/11/13 00:38:29;;;;;;;;;27.25;21.25;;;;;12.94;73.26;101176.31;5043556;28;45296;-62
2021/11/13 00:40:55;;;;;;;;;25.50;20.50;;;;;12.97;73.16;101173.47;5043850;28;45304;-62
2021/11/13 00:43:21;;;;;;;;;22.00;18.00;;;;;13.00;73.28;101175.06;5043270;28;45891;-62
2021/11/13 00:45:47;;;;;;;;;22.75;16.50;;;;;13.00;73.12;101170.63;5043491;28;45581;-62
2021/11/13 00:48:12;;;;;;;;;25.75;19.25;;;;;13.02;73.23;101175.81;5043576;28;45225;-62
2021/11/13 00:50:40;;;;;;;;;21.00;18.25;;;;;13.03;73.13;101174.88;5043523;28;45418;-62
2021/11/13 00:53:06;;;;;;;;;22.75;16.25;;;;;13.04;73.00;101173.97;5043049;28;45349;-62
2021/11/13 00:55:31;;;;;;;;;18.75;17.00;;;;;13.03;72.97;101174.88;5043439;28;45234;-62
2021/11/13 00:57:57;;;;;;;;;19.00;17.00;;;;;13.03;72.81;101183.69;5043557;28;45510;-62
2021/11/13 01:00:24;;;;;;;;;17.50;15.25;;;;;13.01;72.97;101180.25;5043389;28;45602;-62
2021/11/13 01:02:50;;;;;;;;;19.75;16.00;;;;;13.01;72.77;101180.25;5043066;28;45376;-62
2021/11/13 01:05:16;;;;;;;;;22.25;17.00;;;;;13.01;72.78;101180.25;5043120;28;45369;-62
2021/11/13 01:07:42;;;;;;;;;19.75;16.00;;;;;13.03;72.73;101177.53;5043255;28;45522;-63
2021/11/13 01:10:09;;;;;;;;;23.25;18.75;;;;;13.04;72.76;101171.31;5042132;28;45408;-62
2021/11/13 01:12:36;;;;;;;;;25.50;18.50;;;;;13.05;72.94;101170.38;5042782;28;45241;-63
2021/11/13 01:15:04;;;;;;;;;19.00;14.50;;;;;13.05;72.57;101175.66;5042937;28;45241;-62
2021/11/13 01:17:30;;;;;;;;;21.50;14.50;;;;;13.06;72.80;101170.25;5042976;28;45313;-62
2021/11/13 01:19:55;;;;;;;;;20.00;16.25;;;;;13.07;72.78;101179.03;5042808;28;45365;-62
2021/11/13 01:22:21;;;;;;;;;19.50;14.50;;;;;13.05;72.70;101173.84;5042516;28;45312;-62
2021/11/13 01:24:47;;;;;;;;;23.00;16.75;;;;;13.06;72.67;101170.25;5042962;28;45324;-62
2021/11/13 01:27:14;;;;;;;;;19.25;14.25;;;;;13.07;73.07;101177.25;5043199;28;45454;-62
2021/11/13 01:29:41;;;;;;;;;22.00;14.50;;;;;13.06;73.06;101172.91;5043101;28;45182;-62
2021/11/13 01:32:07;;;;;;;;;21.25;16.25;;;;;13.06;73.51;101172.91;5042483;28;46144;-62
2021/11/13 01:34:33;;;;;;;;;19.00;16.25;;;;;13.07;73.31;101169.31;5042544;28;45636;-62
2021/11/13 01:36:59;;;;;;;;;18.50;16.50;;;;;13.05;73.40;101176.50;5042866;28;45387;-62
2021/11/13 01:39:25;;;;;;;;;16.25;13.50;;;;;13.03;73.71;101173.09;5042945;28;45297;-62
2021/11/13 01:42:00;;;;;;;;;16.25;12.75;;;;;13.03;73.64;101186.34;5042556;28;45305;-62
2021/11/13 01:44:26;;;;;;;;;20.00;16.50;;;;;13.02;73.89;101178.47;5043140;28;45359;-63
2021/11/13 01:46:51;;;;;;;;;18.00;12.00;;;;;12.99;74.17;101170.75;5043196;28;45317;-62
2021/11/13 01:49:18;;;;;;;;;13.50;11.25;;;;;12.99;74.38;101173.38;5043492;28;45455;-62
2021/11/13 01:51:46;;;;;;;;;15.75;13.50;;;;;12.96;74.34;101168.28;5041907;28;45482;-63
2021/11/13 01:54:12;;;;;;;;;20.50;12.25;;;;;12.93;74.43;101163.19;5042331;28;45194;-62
2021/11/13 01:56:39;;;;;;;;;13.75;11.50;;;;;12.94;74.55;101163.06;5042337;28;45407;-62
2021/11/13 01:59:07;;;;;;;;;9.75;9.50;;;;;12.95;74.63;101162.13;5042695;28;45477;-62
2021/11/13 02:01:35;;;;;;;;;18.75;11.25;;;;;12.94;74.44;101149.84;5042137;28;46090;-62
2021/11/13 02:04:01;;;;;;;;;16.00;12.00;;;;;12.94;74.49;101156.94;5042120;28;45379;-62
2021/11/13 02:06:28;;;;;;;;;13.75;11.00;;;;;12.96;74.58;101142.69;5042155;28;45232;-62
2021/11/13 02:08:54;;;;;;;;;14.25;10.00;;;;;12.95;74.45;101154.19;5042549;28;45299;-62
2021/11/13 02:11:22;;;;;;;;;17.25;12.75;;;;;12.94;74.59;101154.28;5042085;28;45326;-62
2021/11/13 02:13:49;;;;;;;;;15.00;11.50;;;;;12.93;74.62;101144.66;5042344;28;45260;-63
2021/11/13 02:16:15;;;;;;;;;16.00;12.50;;;;;12.92;74.76;101143.81;5042061;28;45304;-62
2021/11/13 02:18:42;;;;;;;;;19.00;11.75;;;;;12.94;74.80;101138.44;5041833;28;45426;-62
2021/11/13 02:21:09;;;;;;;;;10.00;3.50;;;;;12.92;74.57;101149.13;5024420;28;45554;-62
2021/11/13 02:23:36;;;;;;;;;11.25;6.00;;;;;12.93;74.60;101149.97;5041909;28;45342;-62
2021/11/13 02:26:01;;;;;;;;;14.25;12.00;;;;;12.95;74.93;101150.69;5041827;28;45323;-62
2021/11/13 02:28:28;;;;;;;;;16.75;11.50;;;;;12.95;74.67;101158.63;5042228;28;45305;-62
2021/11/13 02:30:58;;;;;;;;;12.00;11.00;;;;;12.93;74.43;101161.38;5041626;28;45309;-62
2021/11/13 02:33:24;;;;;;;;;13.50;10.75;;;;;12.94;74.55;101160.44;5041760;28;45374;-62
2021/11/13 02:35:53;;;;;;;;;15.00;12.00;;;;;12.97;74.56;101162.06;5042080;28;45416;-63
2021/11/13 02:38:22;;;;;;;;;10.75;8.25;;;;;12.98;74.54;101151.38;5041729;28;45592;-62
2021/11/13 02:40:55;;;;;;;;;18.50;12.50;;;;;13.00;74.31;101151.28;5041744;28;45328;-63
2021/11/13 02:43:22;;;;;;;;;17.25;14.00;;;;;13.00;74.31;101143.34;5041564;28;45555;-63
2021/11/13 02:45:48;;;;;;;;;13.50;11.00;;;;;12.98;74.37;101143.44;5041855;28;45352;-62
2021/11/13 02:48:15;;;;;;;;;14.50;11.50;;;;;12.99;74.37;101134.56;5041795;28;45346;-62
2021/11/13 02:50:43;;;;;;;;;18.75;13.00;;;;;13.00;74.11;101151.28;5041353;28;45350;-62
2021/11/13 02:53:23;;;;;;;;;19.25;13.00;;;;;13.00;74.19;101146.00;5041216;28;45266;-62
2021/11/13 02:55:51;;;;;;;;;17.25;11.25;;;;;13.01;74.30;101137.94;5041562;28;45403;-62
2021/11/13 02:58:17;;;;;;;;;15.50;12.50;;;;;13.03;74.16;101138.72;5041623;28;45378;-62
2021/11/13 03:00:44;;;;;;;;;19.25;11.25;;;;;13.02;74.05;101136.16;5041320;28;46066;-62
2021/11/13 03:03:15;;;;;;;;;13.25;11.50;;;;;13.03;74.09;101128.16;5041273;28;45309;-62
2021/11/13 03:05:47;;;;;;;;;12.00;10.50;;;;;13.05;73.78;101142.13;5023357;28;45329;-62
2021/11/13 03:08:13;;;;;;;;;16.50;12.00;;;;;13.04;73.83;101126.34;5041228;28;45413;-62
2021/11/13 03:10:39;;;;;;;;;15.75;11.00;;;;;13.04;73.82;101124.56;5041163;28;46185;-62
2021/11/13 03:13:05;;;;;;;;;9.00;9.00;;;;;13.05;73.77;101122.75;5041331;28;45328;-62
2021/11/13 03:15:31;;;;;;;;;12.75;10.50;;;;;13.04;73.90;101129.84;5041348;28;45318;-62
2021/11/13 03:17:58;;;;;;;;;13.75;10.75;;;;;13.05;74.01;101131.53;5041514;28;45316;-62
2021/11/13 03:20:27;;;;;;;;;16.00;11.25;;;;;13.06;73.99;101124.44;5034517;28;46389;-62
2021/11/13 03:22:55;;;;;;;;;17.75;11.50;;;;;13.05;74.04;101123.59;5040980;28;45439;-62
2021/11/13 03:25:24;;;;;;;;;14.75;9.75;;;;;13.03;74.07;101116.69;5041070;28;45371;-62
2021/11/13 03:27:54;;;;;;;;;14.50;11.00;;;;;13.04;73.90;101124.56;5041236;28;45171;-62
2021/11/13 03:30:21;;;;;;;;;17.75;11.00;;;;;13.05;73.55;101130.69;5040863;28;46167;-62
2021/11/13 03:32:48;;;;;;;;;9.75;9.00;;;;;13.08;73.89;101133.13;5040336;28;45280;-63
2021/11/13 03:35:16;;;;;;;;;12.25;8.50;;;;;13.07;73.85;101121.69;5040756;28;45166;-62
2021/11/13 03:37:42;;;;;;;;;14.50;10.50;;;;;13.07;73.72;101124.34;5040894;28;45340;-62
2021/11/13 03:40:10;;;;;;;;;9.75;9.00;;;;;13.09;73.42;101127.75;5040784;28;45338;-63
2021/11/13 03:42:36;;;;;;;;;13.75;9.00;;;;;13.09;73.92;101121.59;5040862;28;45348;-62
2021/11/13 03:45:02;;;;;;;;;11.75;11.25;;;;;13.09;73.84;101118.94;5040901;28;45402;-62
2021/11/13 03:47:27;;;;;;;;;17.25;10.25;;;;;13.07;73.92;101119.06;5040979;28;45582;-62
2021/11/13 03:49:53;;;;;;;;;12.50;9.50;;;;;13.05;74.12;101120.97;5040400;28;45452;-62
2021/11/13 03:52:19;;;;;;;;;14.25;10.00;;;;;13.05;74.06;101128.91;5040397;28;45360;-62
2021/11/13 03:54:44;;;;;;;;;13.50;8.25;;;;;13.06;74.12;101125.28;5040859;28;45474;-62
2021/11/13 03:57:10;;;;;;;;;15.75;9.75;;;;;13.07;74.18;101126.16;5040877;28;45455;-62
2021/11/13 03:59:35;;;;;;;;;10.75;9.75;;;;;13.09;73.96;101122.44;5040690;28;46176;-62
2021/11/13 04:02:01;;;;;;;;;12.00;7.00;;;;;13.10;74.20;101129.44;5040539;28;45261;-63
2021/11/13 04:04:26;;;;;;;;;10.50;8.00;;;;;13.11;74.00;101132.91;5040589;28;45188;-62
2021/11/13 04:06:52;;;;;;;;;15.50;11.25;;;;;13.12;74.00;101140.78;5040585;28;45273;-62
2021/11/13 04:09:18;;;;;;;;;15.50;8.00;;;;;13.13;73.85;101133.69;5041158;28;45817;-62
2021/11/13 04:11:44;;;;;;;;;4.00;4.00;;;;;13.12;74.13;101132.00;5041053;28;45336;-62
2021/11/13 04:14:10;;;;;;;;;11.25;6.75;;;;;13.09;74.17;101135.66;5040736;28;45303;-63
2021/11/13 04:16:35;;;;;;;;;9.00;4.50;;;;;13.09;74.45;101143.59;5040598;28;45398;-63
2021/11/13 04:19:01;;;;;;;;;11.50;4.75;;;;;13.09;74.09;101135.66;5039921;28;46183;-62
2021/11/13 04:21:26;;;;;;;;;10.25;6.75;;;;;13.09;74.08;101140.13;5040267;28;45365;-62
2021/11/13 04:23:52;;;;;;;;;5.25;4.50;;;;;13.09;74.34;101127.75;5040367;28;45365;-62
2021/11/13 04:26:18;;;;;;;;;7.50;3.75;;;;;13.09;74.08;101146.25;5040294;28;45488;-62
2021/11/13 04:28:46;;;;;;;;;4.25;4.00;;;;;13.11;74.10;101140.84;5040230;28;45331;-62
2021/11/13 04:31:12;;;;;;;;;5.25;4.25;;;;;13.11;74.52;101136.44;5040080;28;45328;-62
2021/11/13 04:33:39;;;;;;;;;8.25;4.50;;;;;13.13;74.25;101137.19;5040005;28;45273;-62
2021/11/13 04:36:15;;;;;;;;;8.00;3.50;;;;;13.16;74.17;101128.19;5040463;28;45404;-62
2021/11/13 04:38:41;;;;;;;;;9.25;5.00;;;;;13.15;74.13;101121.22;5039865;28;46125;-62
2021/11/13 04:41:08;;;;;;;;;8.50;3.00;;;;;13.15;74.05;101139.72;5040148;28;45407;-63
2021/11/13 04:43:34;;;;;;;;;6.25;4.00;;;;;13.15;74.06;101131.78;5041059;28;45245;-62
2021/11/13 04:46:00;;;;;;;;;4.00;4.00;;;;;13.16;74.24;101133.50;5043813;28;45205;-62
2021/11/13 04:48:25;;;;;;;;;5.00;3.00;;;;;13.17;74.36;101132.53;5043217;28;45261;-62
2021/11/13 04:50:51;;;;;;;;;4.25;4.00;;;;;13.18;73.99;101130.75;5043713;28;45307;-64
2021/11/13 04:53:16;;;;;;;;;4.25;2.75;;;;;13.18;74.23;101131.59;5043384;28;45458;-63
2021/11/13 04:55:42;;;;;;;;;4.50;4.00;;;;;13.18;74.20;101128.94;5043573;28;45214;-62
2021/11/13 04:58:08;;;;;;;;;5.25;3.75;;;;;13.17;74.13;101129.03;5043318;28;46083;-62
2021/11/13 05:00:34;;;;;;;;;3.50;3.00;;;;;13.13;74.23;101133.69;5043372;28;45280;-62
2021/11/13 05:03:00;;;;;;;;;4.50;3.00;;;;;13.11;74.33;101149.66;5043289;28;45427;-62
2021/11/13 05:05:28;;;;;;;;;7.00;5.00;;;;;13.10;74.69;101149.75;5043246;28;45316;-62
2021/11/13 05:07:54;;;;;;;;;4.00;4.00;;;;;13.11;74.67;101149.66;5024962;28;46161;-62
2021/11/13 05:10:20;;;;;;;;;4.00;3.50;;;;;13.12;74.46;101145.22;5043047;28;45225;-62
2021/11/13 05:12:47;;;;;;;;;4.75;3.75;;;;;13.13;74.61;101145.13;5043310;28;45285;-62
2021/11/13 05:15:13;;;;;;;;;8.75;4.00;;;;;13.14;74.60;101136.25;5043415;28;45534;-62
2021/11/13 05:17:39;;;;;;;;;4.50;4.00;;;;;13.16;74.57;101141.44;5043044;28;45284;-62
2021/11/13 05:20:08;;;;;;;;;5.25;3.00;;;;;13.16;74.56;101141.44;5042533;28;45254;-62
2021/11/13 05:22:36;;;;;;;;;4.50;4.25;;;;;13.17;74.72;101136.97;5042804;28;45291;-62
2021/11/13 05:25:02;;;;;;;;;2.75;2.75;;;;;13.16;74.50;101143.22;5043013;28;45598;-62
2021/11/13 05:27:28;;;;;;;;;5.00;2.75;;;;;13.13;74.53;101139.00;5042837;28;45430;-62
2021/11/13 05:29:53;;;;;;;;;9.25;3.50;;;;;13.12;74.76;101151.38;5043039;28;45320;-62
2021/11/13 05:32:19;;;;;;;;;3.50;3.00;;;;;13.13;74.74;101157.50;5042935;28;45365;-62
2021/11/13 05:34:44;;;;;;;;;2.75;1.25;;;;;13.13;74.68;101150.41;5042942;28;45387;-62
2021/11/13 05:37:10;;;;;;;;;4.00;3.50;;;;;13.13;74.81;101152.22;5042776;28;45229;-62
2021/11/13 05:39:38;;;;;;;;;3.00;1.75;;;;;13.14;74.46;101160.03;5042690;28;45300;-63
2021/11/13 05:42:04;;;;;;;;;2.00;2.00;;;;;13.15;74.66;101152.97;5042809;28;45439;-62
2021/11/13 05:44:30;;;;;;;;;4.00;2.00;;;;;13.16;74.56;101156.44;5042756;28;45438;-62
2021/11/13 05:46:56;;;;;;;;;3.50;2.00;;;;;13.14;74.71;101148.63;5042277;28;46268;-62
2021/11/13 05:49:22;;;;;;;;;4.00;4.00;;;;;13.14;74.49;101146.81;5042428;28;45221;-62
2021/11/13 05:51:48;;;;;;;;;3.00;3.00;;;;;13.17;74.85;101147.56;5042456;28;45166;-62
2021/11/13 05:54:13;;;;;;;;;2.50;2.00;;;;;13.17;74.57;101155.50;5042748;28;45384;-62
2021/11/13 05:56:39;;;;;;;;;3.00;2.00;;;;;13.16;74.64;101146.72;5041428;28;45468;-62
2021/11/13 05:59:04;;;;;;;;;4.00;1.75;;;;;13.15;74.55;101145.03;5042432;28;45336;-62
2021/11/13 06:01:30;;;;;;;;;2.75;1.75;;;;;13.17;74.39;101155.50;5042538;28;45322;-62
2021/11/13 06:03:56;;;;;;;;;3.00;2.00;;;;;13.14;74.36;101149.47;5042315;28;45430;-62
2021/11/13 06:06:21;;;;;;;;;4.75;1.75;;;;;13.14;74.48;101152.09;5041946;28;45316;-63
2021/11/13 06:08:47;;;;;;;;;4.75;1.25;;;;;13.13;74.66;101142.47;5042201;28;45383;-62
2021/11/13 06:11:12;;;;;;;;;3.50;2.00;;;;;13.13;74.50;101154.84;5042357;28;45297;-63
2021/11/13 06:13:38;;;;;;;;;7.25;2.00;;;;;13.12;74.53;101159.31;5042517;28;45204;-64
2021/11/13 06:16:06;;;;;;;;;2.00;2.00;;;;;13.11;74.67;101149.66;5042011;28;45392;-64
2021/11/13 06:18:32;;;;;;;;;0.75;0.75;;;;;13.10;74.80;101155.88;5041914;28;45181;-61
2021/11/13 06:20:58;;;;;;;;;5.75;2.00;;;;;13.08;74.72;101149.84;5042077;28;45423;-61
2021/11/13 06:23:23;;;;;;;;;1.75;1.00;;;;;13.08;74.92;101163.06;5041988;28;45530;-64
2021/11/13 06:25:50;;;;;;;;;4.00;1.00;;;;;13.07;74.73;101161.38;5041891;28;45330;-61
2021/11/13 06:28:16;;;;;;;;;2.25;1.75;;;;;13.07;74.89;101156.09;5042128;28;45497;-62
2021/11/13 06:30:41;;;;;;;;;2.50;1.50;;;;;13.07;75.04;101160.53;5042809;28;45409;-62
2021/11/13 06:33:07;;;;;;;;;0.25;0.00;;;;;13.05;75.50;101170.38;5043391;28;45296;-62
2021/11/13 06:35:33;;;;;;;;;2.00;1.00;;;;;13.02;75.72;101170.53;5041859;28;45327;-62
2021/11/13 06:37:58;;;;;;;;;3.25;1.00;;;;;12.96;75.75;101168.28;5041833;28;45226;-62
2021/11/13 06:40:24;;;;;;;;;1.25;1.00;;;;;12.94;75.83;101168.38;5041784;28;45197;-62
2021/11/13 06:42:49;;;;;;;;;2.00;1.00;;;;;12.92;75.96;101175.56;5041901;28;45245;-62
2021/11/13 06:45:15;;;;;;;;;1.00;1.00;;;;;12.90;76.10;101172.16;5041681;28;45523;-62
2021/11/13 06:47:41;;;;;;;;;0.75;0.75;;;;;12.89;76.27;101182.84;5041719;28;45238;-62
2021/11/13 06:50:10;;;;;;;;;3.25;1.00;;;;;12.89;76.41;101180.19;5041410;28;45261;-62
2021/11/13 06:52:35;;;;;;;;;2.00;1.00;;;;;12.88;76.41;101175.84;5041607;28;45518;-62
2021/11/13 06:55:01;;;;;;;;;4.00;2.00;;;;;12.87;76.72;101180.25;5041354;28;45400;-62
2021/11/13 06:57:26;;;;;;;;;1.75;1.00;;;;;12.85;76.83;101188.28;5041745;28;45402;-62
2021/11/13 06:59:52;;;;;;;;;3.25;1.50;;;;;12.84;76.93;101186.59;5041527;28;45301;-62
2021/11/13 07:02:17;;;;;;;;;2.75;2.00;;;;;12.81;77.03;101180.66;5041601;28;45432;-62
2021/11/13 07:04:43;;;;;;;;;7.75;1.00;;;;;12.82;77.14;101187.66;5041206;28;46137;-62
2021/11/13 07:07:09;;;;;;;;;1.75;1.00;;;;;12.84;77.37;101193.69;5040087;28;45324;-62
2021/11/13 07:09:36;;;;;;;;;3.50;1.00;;;;;12.84;77.36;101193.69;5041510;28;45253;-61
2021/11/13 07:12:03;;;;;;;;;1.50;1.50;;;;;12.88;77.22;101200.50;5041501;28;45400;-62
2021/11/13 07:14:29;;;;;;;;;2.25;1.00;;;;;12.90;77.25;101209.19;5041152;28;45401;-62
2021/11/13 07:16:54;;;;;;;;;2.75;1.75;;;;;12.91;76.76;101218.81;5041172;28;45363;-61
2021/11/13 07:19:20;;;;;;;;;1.00;1.00;;;;;12.91;77.13;101224.09;5041100;28;45402;-62
2021/11/13 07:21:45;;;;;;;;;0.50;0.50;;;;;12.91;76.96;101223.25;5041166;28;45292;-62
2021/11/13 07:24:11;;;;;;;;;0.25;0.25;;;;;12.90;77.02;101226.84;5023020;28;46370;-63
2021/11/13 07:26:37;;;;;;;;;2.00;0.75;;;;;12.91;77.10;101232.03;5041128;28;45313;-63
2021/11/13 07:29:06;;;;;;;;;1.00;0.00;;;;;12.91;77.10;101241.75;5041438;28;45320;-63
2021/11/13 07:31:32;;;;;;;;;1.00;0.50;;;;;12.90;77.04;101232.97;5041182;28;45531;-63
2021/11/13 07:33:59;;;;;;;;;3.00;1.00;;;;;12.92;77.24;101236.38;5040498;28;45744;-63
2021/11/13 07:36:26;;;;;;;;;1.00;0.00;;;;;12.94;77.24;101241.56;5040828;28;45277;-63
2021/11/13 07:38:51;;;;;;;;;1.00;1.00;;;;;12.92;77.32;101246.09;5041010;28;45344;-63
2021/11/13 07:41:18;;;;;;;;;1.00;0.00;;;;;12.91;77.60;101247.91;5041082;28;45522;-62
2021/11/13 07:43:45;;;;;;;;;1.00;0.75;;;;;12.91;77.30;101254.97;5040668;28;46183;-63
2021/11/13 07:46:10;;;;;;;;;0.00;0.00;;;;;12.91;77.52;101255.81;5040820;28;45311;-63
2021/11/13 07:48:36;;;;;;;;;0.75;0.50;;;;;12.92;77.37;101252.22;5040623;28;45405;-63
2021/11/13 07:51:04;;;;;;;;;0.00;0.00;;;;;12.94;77.46;101254.78;5040786;28;45212;-64
2021/11/13 07:53:30;;;;;;;;;1.00;1.00;;;;;12.94;77.45;101257.41;5040365;28;45912;-63
2021/11/13 07:55:55;;;;;;;;;1.25;1.00;;;;;12.98;77.58;101264.25;5040590;28;45269;-63
2021/11/13 07:58:21;;;;;;;;;1.00;0.00;;;;;12.99;77.37;101253.56;5040743;28;45367;-63
2021/11/13 08:00:49;;;;;;;;;0.00;0.00;;;;;13.02;77.31;101261.31;5041009;28;45345;-63
2021/11/13 08:03:14;;;;;;;;;2.50;0.00;;;;;13.04;77.24;101254.16;5040201;28;46192;-63
2021/11/13 08:05:40;;;;;;;;;1.00;1.00;;;;;13.05;77.54;101260.28;5040566;28;45733;-63
2021/11/13 08:08:07;;;;;;;;;1.00;1.00;;;;;13.06;77.33;101259.34;5040530;28;45363;-63
2021/11/13 08:10:40;;;;;;;;;1.00;0.00;;;;;13.08;77.39;101257.44;5040640;28;45250;-63
2021/11/13 08:13:07;;;;;;;;;0.75;0.75;;;;;13.09;77.22;101272.34;5040254;28;46242;-63
2021/11/13 08:15:32;;;;;;;;;0.75;0.75;;;;;13.09;77.09;101275.00;5040508;28;45244;-63
2021/11/13 08:17:58;;;;;;;;;0.00;0.00;;;;;13.09;77.21;101267.91;5040648;28;45300;-63
2021/11/13 08:20:24;;;;;;;;;1.25;1.00;;;;;13.10;77.44;101277.53;5044147;28;45419;-63
2021/11/13 08:22:50;;;;;;;;;3.25;1.00;;;;;13.12;77.16;101270.41;5043773;28;45408;-63
2021/11/13 08:25:16;;;;;;;;;0.25;0.25;;;;;13.16;77.09;101268.41;5044123;28;45321;-63
2021/11/13 08:27:43;;;;;;;;;0.00;0.00;;;;;13.18;77.06;101263.00;5043977;28;45276;-64
2021/11/13 08:30:10;;;;;;;;;1.00;1.00;;;;;13.23;77.06;101282.13;5043962;28;45495;-63
2021/11/13 08:32:38;;;;;;;;;1.00;0.75;;;;;13.27;76.91;101278.34;5043628;28;45369;-63
2021/11/13 08:35:05;;;;;;;;;2.75;2.00;;;;;13.30;77.01;101271.06;5043537;28;45447;-64
2021/11/13 08:37:31;;;;;;;;;3.75;2.00;;;;;13.36;76.70;101276.00;5043703;28;45335;-63
2021/11/13 08:39:57;;;;;;;;;1.50;1.00;;;;;13.40;76.67;101281.94;5043705;28;45563;-63
2021/11/13 08:42:23;;;;;;;;;0.50;0.50;;;;;13.43;76.78;101287.06;5043637;28;45404;-63
2021/11/13 08:44:50;;;;;;;;;2.00;1.00;;;;;13.43;76.43;101284.41;5043709;28;45359;-63
2021/11/13 08:47:15;;;;;;;;;4.25;3.00;;;;;13.46;76.68;101293.94;5043605;28;45248;-63
2021/11/13 08:49:45;;;;;;;;;1.00;1.00;;;;;13.47;76.38;101291.19;5043420;28;46013;-63
2021/11/13 08:52:13;;;;;;;;;0.75;0.75;;;;;13.45;76.39;101292.25;5043213;28;46166;-63
2021/11/13 08:54:39;;;;;;;;;1.00;1.00;;;;;13.50;76.32;101285.69;5043481;28;45482;-63
2021/11/13 08:57:06;;;;;;;;;1.25;1.25;;;;;13.53;76.44;101284.69;5043562;28;45356;-64
2021/11/13 08:59:32;;;;;;;;;1.75;1.75;;;;;13.56;76.21;101280.03;5043499;28;45178;-63
2021/11/13 09:02:00;;;;;;;;;4.00;1.75;;;;;13.61;76.14;101290.34;5043347;28;45311;-63
2021/11/13 09:04:26;;;;;;;;;1.75;1.00;;;;;13.63;76.16;101280.50;5042900;28;45293;-64
2021/11/13 09:06:52;;;;;;;;;1.00;1.00;;;;;13.63;76.03;101278.69;5043364;28;45408;-63
2021/11/13 09:09:17;;;;;;;;;3.25;2.00;;;;;13.67;75.85;101284.66;5043176;28;45530;-64
2021/11/13 09:11:43;;;;;;;;;2.00;1.00;;;;;13.68;75.78;101289.84;5043076;28;45277;-64
2021/11/13 09:14:14;;;;;;;;;1.50;1.50;;;;;13.70;75.69;101284.44;5043141;28;45231;-64
2021/11/13 09:16:40;;;;;;;;;3.00;1.00;;;;;13.70;75.69;101281.81;5043120;28;45352;-63
2021/11/13 09:19:06;;;;;;;;;3.00;1.00;;;;;13.71;75.45;101290.59;5042835;28;45288;-63
2021/11/13 09:21:33;;;;;;;;;0.00;0.00;;;;;13.69;75.73;101290.69;5042668;28;46105;-63
2021/11/13 09:24:01;;;;;;;;;5.25;5.25;;;;;13.71;75.76;101287.94;5024905;28;45338;-63
2021/11/13 09:26:26;;;;;;;;;4.00;3.50;;;;;13.72;75.86;101284.34;5043110;28;45233;-63
2021/11/13 09:28:52;;;;;;;;;5.50;2.75;;;;;13.72;75.88;101290.50;5043123;28;45241;-63
2021/11/13 09:31:18;;;;;;;;;2.00;1.50;;;;;13.71;76.02;101294.09;5041721;28;46040;-63
2021/11/13 09:33:43;;;;;;;;;2.00;2.00;;;;;13.66;76.14;101297.00;5042660;28;45364;-63
2021/11/13 09:36:09;;;;;;;;;3.00;2.00;;;;;13.64;76.29;101290.97;5025171;28;45424;-63
2021/11/13 09:38:37;;;;;;;;;2.50;1.00;;;;;13.63;76.30;101296.38;5042895;28;45277;-63
2021/11/13 09:41:06;;;;;;;;;1.00;1.00;;;;;13.65;76.24;101290.03;5042812;28;46272;-63
2021/11/13 09:43:33;;;;;;;;;3.50;3.00;;;;;13.66;76.03;101297.00;5042559;28;45430;-63
2021/11/13 09:46:00;;;;;;;;;3.50;1.00;;;;;13.71;76.08;101295.88;5042866;28;45323;-63
2021/11/13 09:48:27;;;;;;;;;3.50;2.50;;;;;13.73;76.06;101300.13;5042532;28;45371;-63
2021/11/13 09:50:53;;;;;;;;;3.25;2.25;;;;;13.78;76.32;101294.56;5042467;28;45332;-63
2021/11/13 09:53:21;;;;;;;;;3.75;3.00;;;;;13.84;76.13;101307.41;5042125;28;45181;-65
2021/11/13 09:55:47;;;;;;;;;2.75;2.75;;;;;13.90;75.99;101312.28;5042570;28;45221;-63
2021/11/13 09:58:13;;;;;;;;;3.25;2.50;;;;;13.96;75.79;101311.91;5042532;28;45336;-63
2021/11/13 10:00:40;;;;;;;;;3.50;3.25;;;;;14.01;76.06;101314.28;5042242;28;45374;-63
2021/11/13 10:03:07;;;;;;;;;4.00;3.00;;;;;14.04;75.71;101306.13;5042245;28;45348;-64
2021/11/13 10:05:33;;;;;;;;;7.00;3.25;;;;;14.08;75.66;101319.09;5042473;28;45431;-63
2021/11/13 10:07:59;;;;;;;;;5.75;4.00;;;;;14.12;75.56;101309.97;5042243;28;45326;-63
2021/11/13 10:10:33;;;;;;;;;4.00;4.00;;;;;14.12;75.74;101319.72;5042102;28;45283;-63
2021/11/13 10:12:59;;;;;;;;;5.25;3.25;;;;;14.14;75.67;101317.81;5024317;28;45293;-63
2021/11/13 10:15:31;;;;;;;;;4.00;3.25;;;;;14.18;75.21;101314.88;5042191;28;45237;-63
2021/11/13 10:18:16;;;;;;;;;5.00;4.50;;;;;14.21;75.45;101314.66;5042241;28;45370;-63
2021/11/13 10:20:45;;;;;;;;;5.00;3.50;;;;;14.24;74.89;101311.84;5041980;28;45373;-63
2021/11/13 10:23:32;;;;;;;;;6.00;5.25;;;;;14.28;74.94;101314.28;5041879;28;45252;-63
2021/11/13 10:26:07;;;;;;;;;5.75;4.00;;;;;14.30;74.90;101307.94;5041990;28;45221;-63
2021/11/13 10:28:41;;;;;;;;;7.75;5.75;;;;;14.34;74.93;101309.41;5042121;28;45344;-63
2021/11/13 10:31:11;;;;;;;;;8.00;7.50;;;;;14.37;74.55;101305.72;5041853;28;45169;-63
2021/11/13 10:33:38;;;;;;;;;4.00;4.00;;;;;14.39;74.44;101309.13;5041363;28;45305;-63
2021/11/13 10:36:05;;;;;;;;;5.75;4.00;;;;;14.42;74.49;101308.91;5042003;28;45180;-63
2021/11/13 10:38:32;;;;;;;;;6.50;4.75;;;;;14.42;74.33;101306.25;5041837;28;45231;-63
2021/11/13 10:41:05;;;;;;;;;3.50;3.00;;;;;14.41;74.24;101307.22;5041742;28;46265;-63
2021/11/13 10:43:37;;;;;;;;;6.50;5.00;;;;;14.41;74.37;101302.75;5041577;28;45254;-63
2021/11/13 10:46:10;;;;;;;;;6.00;4.00;;;;;14.43;74.26;101311.47;5041591;28;45486;-63
2021/11/13 10:48:40;;;;;;;;;7.00;4.75;;;;;14.43;74.34;101306.16;5041468;28;45318;-63
2021/11/13 10:51:12;;;;;;;;;5.00;4.50;;;;;14.47;74.41;101306.84;5041522;28;46142;-63
2021/11/13 10:53:39;;;;;;;;;5.50;5.00;;;;;14.46;74.18;101311.31;5041125;28;45260;-63
2021/11/13 10:56:13;;;;;;;;;6.75;5.50;;;;;14.50;74.16;101309.28;5041560;28;45268;-63
2021/11/13 10:58:45;;;;;;;;;4.50;4.50;;;;;14.51;74.14;101306.53;5041651;28;45217;-64
2021/11/13 11:01:24;;;;;;;;;6.25;5.00;;;;;14.44;73.93;101307.84;5041282;28;45948;-63
2021/11/13 11:03:52;;;;;;;;;6.75;6.00;;;;;14.44;73.85;101304.34;5040777;28;45501;-63
2021/11/13 11:06:38;;;;;;;;;10.00;5.00;;;;;14.46;74.15;101297.22;5041213;28;45221;-63
2021/11/13 11:09:26;;;;;;;;;6.00;5.50;;;;;14.50;74.14;101301.34;5041057;28;45277;-64
2021/11/13 11:11:59;;;;;;;;;6.50;5.50;;;;;14.53;73.56;101298.47;5041100;28;45415;-63
2021/11/13 11:14:28;;;;;;;;;7.25;4.25;;;;;14.55;73.82;101295.75;5041034;28;45299;-63
2021/11/13 11:17:00;;;;;;;;;6.75;4.75;;;;;14.51;73.37;101297.72;5041326;28;45241;-63
2021/11/13 11:19:31;;;;;;;;;6.75;5.25;;;;;14.54;73.37;101286.09;5040611;28;45391;-63